Aviation Digital Data Service (ADDS)

Output produced by METARs form (0527 UTC 25 September 2016)
found at http://aviationweather.gov/adds/metars/
 
KRUT 250520Z 2506/2606 14004KT P6SM SKC 
     FM251300 34005KT P6SM SKC 
     FM251500 33010G17KT P6SM SKC 
     FM252300 35005KT P6SM SKC 
     FM260500 11004KT P6SM SKC AMD LTD TO CLD VIS AND WIND